地図

経路データ

SID SEASON NUMBER BASIN SUBBASIN NAME ISO_TIME NATURE LAT LON WMO_WIND WMO_PRES WMO_AGENCY TRACK_TYPE DIST2LAND LANDFALL IFLAG USA_AGENCY USA_ATCF_ID USA_LAT USA_LON USA_RECORD USA_STATUS USA_WIND USA_PRES USA_SSHS USA_R34_NE USA_R34_SE USA_R34_SW USA_R34_NW USA_R50_NE USA_R50_SE USA_R50_SW USA_R50_NW USA_R64_NE USA_R64_SE USA_R64_SW USA_R64_NW USA_POCI USA_ROCI USA_RMW USA_EYE TOKYO_LAT TOKYO_LON TOKYO_GRADE TOKYO_WIND TOKYO_PRES TOKYO_R50_DIR TOKYO_R50_LONG TOKYO_R50_SHORT TOKYO_R30_DIR TOKYO_R30_LONG TOKYO_R30_SHORT TOKYO_LAND CMA_LAT CMA_LON CMA_CAT CMA_WIND CMA_PRES HKO_LAT HKO_LON HKO_CAT HKO_WIND HKO_PRES NEWDELHI_LAT NEWDELHI_LON NEWDELHI_GRADE NEWDELHI_WIND NEWDELHI_PRES NEWDELHI_CI NEWDELHI_DP NEWDELHI_POCI REUNION_LAT REUNION_LON REUNION_TYPE REUNION_WIND REUNION_PRES REUNION_TNUM REUNION_CI REUNION_RMW REUNION_R34_NE REUNION_R34_SE REUNION_R34_SW REUNION_R34_NW REUNION_R50_NE REUNION_R50_SE REUNION_R50_SW REUNION_R50_NW REUNION_R64_NE REUNION_R64_SE REUNION_R64_SW REUNION_R64_NW BOM_LAT BOM_LON BOM_TYPE BOM_WIND BOM_PRES BOM_TNUM BOM_CI BOM_RMW BOM_R34_NE BOM_R34_SE BOM_R34_SW BOM_R34_NW BOM_R50_NE BOM_R50_SE BOM_R50_SW BOM_R50_NW BOM_R64_NE BOM_R64_SE BOM_R64_SW BOM_R64_NW BOM_ROCI BOM_POCI BOM_EYE BOM_POS_METHOD BOM_PRES_METHOD NADI_LAT NADI_LON NADI_CAT NADI_WIND NADI_PRES WELLINGTON_LAT WELLINGTON_LON WELLINGTON_WIND WELLINGTON_PRES DS824_LAT DS824_LON DS824_STAGE DS824_WIND DS824_PRES TD9636_LAT TD9636_LON TD9636_STAGE TD9636_WIND TD9636_PRES TD9635_LAT TD9635_LON TD9635_WIND TD9635_PRES TD9635_ROCI NEUMANN_LAT NEUMANN_LON NEUMANN_CLASS NEUMANN_WIND NEUMANN_PRES MLC_LAT MLC_LON MLC_CLASS MLC_WIND MLC_PRES USA_GUST BOM_GUST BOM_GUST_PER REUNION_GUST REUNION_GUST_PER USA_SEAHGT USA_SEARAD_NE USA_SEARAD_SE USA_SEARAD_SW USA_SEARAD_NW STORM_SPEED STORM_DIR
2022352S12093 2023 88 SI WA DARIAN 2022-12-18 06:00:00 NR -12.0000 92.7000 PROVISIONAL 1341 1331 O_____________ tcvitals SI052022 -12.0000 92.7000 35 999 0 65 55 90 80 1005 335 55 2 29
2022352S12093 2023 88 SI WA DARIAN 2022-12-18 09:00:00 NR -11.9225 92.7300 PROVISIONAL 1331 1326 P_____________ SI052022 -11.9225 92.7300 37 997 0 65 67 90 77 1004 322 52 1 43
2022352S12093 2023 88 SI WA DARIAN 2022-12-18 12:00:00 NR -11.9000 92.8000 PROVISIONAL 1326 1320 O_____________ tcvitals SI052022 -11.9000 92.8000 39 995 0 65 80 90 75 1004 310 50 2 103
2022352S12093 2023 88 SI WA DARIAN 2022-12-18 15:00:00 NR -11.9700 92.9350 PROVISIONAL 1330 1324 P_____________ SI052022 -11.9700 92.9350 42 994 0 67 82 95 80 1004 335 47 4 124
2022352S12093 2023 88 SI WA DARIAN 2022-12-18 18:00:00 NR -12.1000 93.1000 PROVISIONAL 1329 1329 O_____________ tcvitals SI052022 -12.1000 93.1000 45 994 0 70 85 100 85 1004 360 45 4 133
2022352S12093 2023 88 SI WA DARIAN 2022-12-18 21:00:00 NR -12.2725 93.2725 PROVISIONAL 1338 1338 P_____________ SI052022 -12.2725 93.2725 48 991 0 80 87 100 85 1004 365 45 4 136
2022352S12093 2023 88 SI WA DARIAN 2022-12-19 00:00:00 NR -12.4000 93.4000 PROVISIONAL 1343 1333 O_____________ tcvitals SI052022 -12.4000 93.4000 51 988 0 90 90 100 85 1005 370 45 2 117
2022352S12093 2023 88 SI WA DARIAN 2022-12-19 03:00:00 NR -12.3425 93.4150 PROVISIONAL 1333 1333 P_____________ SI052022 -12.3425 93.4150 52 988 0 90 87 92 87 1005 375 37 1 0
2022352S12093 2023 88 SI WA DARIAN 2022-12-19 06:00:00 NR -12.3000 93.4000 PROVISIONAL 1333 1333 O_____________ tcvitals SI052022 -12.3000 93.4000 54 988 0 90 85 85 90 1005 380 30 1 164
2022352S12093 2023 88 SI WA DARIAN 2022-12-19 09:00:00 NR -12.4625 93.4575 PROVISIONAL 1348 1348 P_____________ SI052022 -12.4625 93.4575 64 981 1 100 97 90 92 1004 370 27 4 167
2022352S12093 2023 88 SI WA DARIAN 2022-12-19 12:00:00 NR -12.7000 93.5000 PROVISIONAL 1368 1368 O_____________ tcvitals SI052022 -12.7000 93.5000 74 974 1 110 110 95 95 1004 360 25 4 0
2022352S12093 2023 88 SI WA DARIAN 2022-12-19 15:00:00 NR -12.9000 93.4725 PROVISIONAL 1388 1388 P_____________ SI052022 -12.9000 93.4725 74 974 1 100 85 107 92 1004 322 25 4 193
2022352S12093 2023 88 SI WA DARIAN 2022-12-19 18:00:00 NR -13.1000 93.4000 PROVISIONAL 1412 1412 O_____________ tcvitals SI052022 -13.1000 93.4000 74 974 1 90 60 120 90 1004 285 25 4 200
2022352S12093 2023 88 SI WA DARIAN 2022-12-19 21:00:00 NR -13.2981 93.3196 PROVISIONAL 1436 1436 P_____________ SI052022 -13.2981 93.3196 81 968 1 100 70 120 92 1004 272 22 4 206
2022352S12093 2023 88 SI WA DARIAN 2022-12-20 00:00:00 NR -13.5000 93.2000 PROVISIONAL 1460 1460 O_____________ tcvitals SI052022 -13.5000 93.2000 89 963 2 110 80 120 95 1004 260 20 5 213
2022352S12093 2023 88 SI WA DARIAN 2022-12-20 03:00:00 NR -13.7219 93.0367 PROVISIONAL 1491 1491 P_____________ SI052022 -13.7219 93.0367 95 957 2 6 220
2022352S12093 2023 88 SI WA DARIAN 2022-12-20 06:00:00 NR -13.9251 92.8378 PROVISIONAL 1522 1522 I_____________ tcvitals SI052022 -13.9251 92.8378 102 952 3 6 227
2022352S12093 2023 88 SI WA DARIAN 2022-12-20 09:00:00 NR -14.0944 92.6217 PROVISIONAL 1552 1552 P_____________ SI052022 -14.0944 92.6217 108 946 3 5 237
2022352S12093 2023 88 SI WA DARIAN 2022-12-20 12:00:00 NR -14.2000 92.4000 PROVISIONAL 1572 1572 O_____________ tcvitals SI052022 -14.2000 92.4000 115 941 4 115 135 115 100 1004 260 14 4 251
2022352S12093 2023 88 SI WA DARIAN 2022-12-20 15:00:00 NR -14.2281 92.2121 PROVISIONAL 1582 1582 P_____________ SI052022 -14.2281 92.2121 121 934 4 117 140 120 105 1004 260 17 4 270
2022352S12093 2023 88 SI WA DARIAN 2022-12-20 18:00:00 NR -14.2000 92.0000 PROVISIONAL 1592 1592 O_____________ tcvitals SI052022 -14.2000 92.0000 128 927 4 120 145 126 110 1005 260 20 5 278
2022352S12093 2023 88 SI WA DARIAN 2022-12-20 21:00:00 NR -14.1650 91.7225 PROVISIONAL 1608 1604 P_____________ SI052022 -14.1650 91.7225 128 926 4 117 140 128 107 1004 255 20 6 280
2022352S12093 2023 88 SI WA DARIAN 2022-12-21 00:00:00 NR -14.1000 91.4000 PROVISIONAL 1615 1615 O_____________ tcvitals SI052022 -14.1000 91.4000 128 926 4 115 135 130 105 1004 250 20 7 285
2022352S12093 2023 88 SI WA DARIAN 2022-12-21 03:00:00 NR -13.9999 91.0725 PROVISIONAL 1623 1623 P_____________ SI052022 -13.9999 91.0725 128 926 4 115 135 130 105 1004 250 18 7 286
2022352S12093 2023 88 SI WA DARIAN 2022-12-21 06:00:00 NR -13.9000 90.7000 PROVISIONAL 1637 1637 O_____________ tcvitals SI052022 -13.9000 90.7000 128 927 4 115 135 130 105 1004 250 17 8 279
2022352S12093 2023 88 SI WA DARIAN 2022-12-21 09:00:00 NR -13.8800 90.2577 PROVISIONAL 1662 1662 P_____________ SI052022 -13.8800 90.2577 128 927 4 107 125 130 107 1004 250 17 9 277
2022352S12093 2023 88 SI MM DARIAN 2022-12-21 12:00:00 NR -13.8000 89.8000 PROVISIONAL 1685 1678 O_____________ tcvitals SI052022 -13.8000 89.8000 128 927 4 100 115 130 110 1004 250 17 9 295
2022352S12093 2023 88 SI MM DARIAN 2022-12-21 15:00:00 NR -13.4924 89.3922 PROVISIONAL 1685 1680 P_____________ SI052022 -13.4924 89.3922 128 926 4 82 117 140 82 1004 220 17 10 308
2022352S12093 2023 88 SI MM DARIAN 2022-12-21 18:00:00 NR -13.2000 89.0000 PROVISIONAL 1687 1687 O_____________ tcvitals SI052022 -13.2000 89.0000 128 926 4 65 120 150 55 1005 190 17 8 293
2022352S12093 2023 88 SI MM DARIAN 2022-12-21 21:00:00 NR -13.1699 88.6003 PROVISIONAL 1716 1716 P_____________ SI052022 -13.1699 88.6003 128 926 4 67 123 147 55 1005 195 17 8 270
2022352S12093 2023 88 SI MM DARIAN 2022-12-22 00:00:00 NR -13.2000 88.2000 PROVISIONAL 1746 1746 O_____________ tcvitals SI052022 -13.2000 88.2000 128 926 4 70 126 145 55 1005 200 17 8 275
2022352S12093 2023 88 SI MM DARIAN 2022-12-22 03:00:00 NR -13.1074 87.8149 PROVISIONAL 1768 1768 P_____________ SI052022 -13.1074 87.8149 121 935 4 85 123 137 65 1005 200 18 8 284
2022352S12093 2023 88 SI MM DARIAN 2022-12-22 06:00:00 NR -13.0000 87.4000 PROVISIONAL 1791 1791 O_____________ tcvitals SI052022 -13.0000 87.4000 115 944 4 100 120 130 75 1005 200 20 9 280
2022352S12093 2023 88 SI MM DARIAN 2022-12-22 09:00:00 NR -12.9426 86.8850 PROVISIONAL 1822 1822 P_____________ SI052022 -12.9426 86.8850 110 948 3 97 125 130 87 1005 200 20 10 276
2022352S12093 2023 88 SI MM DARIAN 2022-12-22 12:00:00 NR -12.9000 86.4000 PROVISIONAL 1863 1863 O_____________ tcvitals SI052022 -12.9000 86.4000 105 953 3 95 130 130 100 1005 200 20 8 276
2022352S12093 2023 88 SI MM DARIAN 2022-12-22 15:00:00 NR -12.8573 86.0776 PROVISIONAL 1887 1887 P_____________ SI052022 -12.8573 86.0776 102 955 3 92 132 128 97 1005 192 20 6 280
2022352S12093 2023 88 SI MM DARIAN 2022-12-22 18:00:00 NR -12.8000 85.8000 PROVISIONAL 1905 1905 O_____________ tcvitals SI052022 -12.8000 85.8000 99 957 3 90 135 126 95 1005 185 20 6 284
2022352S12093 2023 88 SI MM DARIAN 2022-12-22 21:00:00 NR -12.7074 85.4650 PROVISIONAL 1923 1923 P_____________ SI052022 -12.7074 85.4650 94 958 2 100 135 130 105 1005 185 20 7 286
2022352S12093 2023 88 SI MM DARIAN 2022-12-23 00:00:00 NR -12.6000 85.1000 PROVISIONAL 1950 1950 O_____________ tcvitals SI052022 -12.6000 85.1000 89 959 2 110 135 135 115 1005 185 20 8 286
2022352S12093 2023 88 SI MM DARIAN 2022-12-23 03:00:00 NR -12.4851 84.6850 PROVISIONAL 1978 1978 P_____________ SI052022 -12.4851 84.6850 97 956 3 110 135 135 115 1005 222 18 8 284
2022352S12093 2023 88 SI MM DARIAN 2022-12-23 06:00:00 NR -12.4000 84.3000 PROVISIONAL 2007 2007 O_____________ tcvitals SI052022 -12.4000 84.3000 105 953 3 110 135 135 115 1006 260 17 6 278
2022352S12093 2023 88 SI MM DARIAN 2022-12-23 09:00:00 NR -12.3924 84.0351 PROVISIONAL 2034 2034 P_____________ SI052022 -12.3924 84.0351 119 937 4 118 147 147 125 1006 260 17 5 270
2022352S12093 2023 88 SI MM DARIAN 2022-12-23 12:00:00 NR -12.4000 83.8000 PROVISIONAL 2051 2051 O_____________ tcvitals SI052022 -12.4000 83.8000 134 922 4 126 160 160 135 1006 260 17 6 275
2022352S12093 2023 88 SI MM DARIAN 2022-12-23 15:00:00 NR -12.3426 83.4549 PROVISIONAL 2064 2059 P_____________ SI052022 -12.3426 83.4549 129 928 4 105 137 135 115 1006 255 17 6 280
2022352S12093 2023 88 SI MM DARIAN 2022-12-23 18:00:00 NR -12.3000 83.2000 PROVISIONAL 2059 2059 O_____________ tcvitals SI052022 -12.3000 83.2000 124 934 4 85 115 110 95 1006 250 17 2 272
2022352S12093 2023 88 SI MM DARIAN 2022-12-23 21:00:00 NR -12.3350 83.2275 PROVISIONAL 2059 2059 P_____________ SI052022 -12.3350 83.2275 119 937 4 90 117 112 100 1005 247 15 1 137
2022352S12093 2023 88 SI MM DARIAN 2022-12-24 00:00:00 NR -12.4000 83.3000 PROVISIONAL 2072 2068 O_____________ tcvitals SI052022 -12.4000 83.3000 115 940 4 95 120 115 105 1004 245 14 1 234
2022352S12093 2023 88 SI MM DARIAN 2022-12-24 03:00:00 NR -12.4125 83.1201 PROVISIONAL 2068 2067 P_____________ SI052022 -12.4125 83.1201 102 952 3 110 127 122 120 1005 260 14 3 251
2022352S12093 2023 88 SI MM DARIAN 2022-12-24 06:00:00 NR -12.5000 83.0000 PROVISIONAL 2078 2078 O_____________ tcvitals SI052022 -12.5000 83.0000 89 965 2 126 135 130 135 1007 275 14 4 173
2022352S12093 2023 88 SI MM DARIAN 2022-12-24 09:00:00 NR -12.7700 83.1674 PROVISIONAL 2114 2114 P_____________ SI052022 -12.7700 83.1674 91 963 2 126 137 135 130 1007 275 9 8 141
2022352S12093 2023 88 SI MM DARIAN 2022-12-24 12:00:00 NR -13.1000 83.5000 PROVISIONAL 2123 2101 O_____________ tcvitals SI052022 -13.1000 83.5000 93 961 2 126 140 140 126 1007 275 5 9 128
2022352S12093 2023 88 SI MM DARIAN 2022-12-24 15:00:00 NR -13.3277 83.9076 PROVISIONAL 2101 2088 P_____________ SI052022 -13.3277 83.9076 93 961 2 123 140 142 120 1006 270 5 9 123
2022352S12093 2023 88 SI MM DARIAN 2022-12-24 18:00:00 NR -13.6000 84.3000 PROVISIONAL 2088 2085 O_____________ tcvitals SI052022 -13.6000 84.3000 93 961 2 120 140 145 115 1006 265 5 10 139
2022352S12093 2023 88 SI MM DARIAN 2022-12-24 21:00:00 NR -14.0424 84.5525 PROVISIONAL 2091 2091 P_____________ SI052022 -14.0424 84.5525 91 962 2 120 140 145 115 1005 257 9 10 157
2022352S12093 2023 88 SI MM DARIAN 2022-12-25 00:00:00 NR -14.5000 84.7000 PROVISIONAL 2119 2119 O_____________ tcvitals SI052022 -14.5000 84.7000 89 964 2 120 140 145 115 1004 250 14 8 165
2022352S12093 2023 88 SI MM DARIAN 2022-12-25 03:00:00 NR -14.8075 84.7652 PROVISIONAL 2133 2133 P_____________ SI052022 -14.8075 84.7652 84 968 2 127 145 135 117 1005 235 14 6 171
2022352S12093 2023 88 SI MM DARIAN 2022-12-25 06:00:00 NR -15.1000 84.8000 PROVISIONAL 2156 2156 O_____________ tcvitals SI052022 -15.1000 84.8000 80 973 1 135 150 126 120 1006 220 14 7 170
2022352S12093 2023 88 SI MM DARIAN 2022-12-25 09:00:00 NR -15.5225 84.8924 PROVISIONAL 2179 2179 P_____________ SI052022 -15.5225 84.8924 84 969 2 132 140 118 117 1006 235 13 8 166
2022352S12093 2023 88 SI MM DARIAN 2022-12-25 12:00:00 NR -15.9000 85.0000 PROVISIONAL 2203 2203 O_____________ tcvitals SI052022 -15.9000 85.0000 89 966 2 130 130 110 115 1006 250 12 6 159
2022352S12093 2023 88 SI MM DARIAN 2022-12-25 15:00:00 NR -16.0875 85.1150 PROVISIONAL 2211 2203 P_____________ SI052022 -16.0875 85.1150 91 965 2 117 137 118 112 1007 275 14 4 147
2022352S12093 2023 88 SI MM DARIAN 2022-12-25 18:00:00 NR -16.2000 85.2000 PROVISIONAL 2211 2211 O_____________ tcvitals SI052022 -16.2000 85.2000 93 964 2 105 145 126 110 1008 300 17 3 158
2022352S12093 2023 88 SI MM DARIAN 2022-12-25 21:00:00 NR -16.3725 85.2300 PROVISIONAL 2228 2228 P_____________ SI052022 -16.3725 85.2300 101 957 3 105 145 123 110 1008 297 17 3 0
2022352S12093 2023 88 SI MM DARIAN 2022-12-26 00:00:00 NR -16.5000 85.2000 PROVISIONAL 2236 2236 O_____________ tcvitals SI052022 -16.5000 85.2000 109 950 3 105 145 120 110 1008 295 17 2 220
2022352S12093 2023 88 SI MM DARIAN 2022-12-26 03:00:00 NR -16.5075 85.1150 PROVISIONAL 2243 2243 P_____________ SI052022 -16.5075 85.1150 112 947 3 107 142 137 122 1008 297 14 2 270
2022352S12093 2023 88 SI MM DARIAN 2022-12-26 06:00:00 NR -16.5000 85.0000 PROVISIONAL 2250 2250 O_____________ tcvitals SI052022 -16.5000 85.0000 115 944 4 110 140 155 135 1008 300 12 2 251
2022352S12093 2023 88 SI MM DARIAN 2022-12-26 09:00:00 NR -16.5699 84.9224 PROVISIONAL 2266 2266 P_____________ SI052022 -16.5699 84.9224 112 946 3 122 152 152 132 1008 290 13 3 224
2022352S12093 2023 88 SI MM DARIAN 2022-12-26 12:00:00 NR -16.7000 84.8000 PROVISIONAL 2281 2281 O_____________ tcvitals SI052022 -16.7000 84.8000 109 948 3 135 165 150 130 1008 280 14 5 227
2022352S12093 2023 88 SI MM DARIAN 2022-12-26 15:00:00 NR -16.8850 84.5726 PROVISIONAL 2312 2312 P_____________ SI052022 -16.8850 84.5726 107 950 3 132 160 150 125 1008 280 14 6 230
2022352S12093 2023 88 SI MM DARIAN 2022-12-26 18:00:00 NR -17.1000 84.3000 PROVISIONAL 2350 2350 O_____________ tcvitals SI052022 -17.1000 84.3000 105 953 3 130 155 150 120 1008 280 14 6 229
2022352S12093 2023 88 SI MM DARIAN 2022-12-26 21:00:00 NR -17.2923 84.0798 PROVISIONAL 2381 2381 P_____________ SI052022 -17.2923 84.0798 99 958 3 130 155 150 115 1008 270 14 6 230
2022352S12093 2023 88 SI MM DARIAN 2022-12-27 00:00:00 NR -17.5000 83.8000 PROVISIONAL 2420 2420 O_____________ tcvitals SI052022 -17.5000 83.8000 93 963 2 130 155 150 110 1008 260 14 8 237
2022352S12093 2023 88 SI MM DARIAN 2022-12-27 03:00:00 NR -17.7275 83.3874 PROVISIONAL 2465 2465 P_____________ SI052022 -17.7275 83.3874 91 964 2 120 145 138 102 1008 260 14 10 240
2022352S12093 2023 88 SI MM DARIAN 2022-12-27 06:00:00 NR -18.0000 82.9000 PROVISIONAL 2527 2527 O_____________ tcvitals SI052022 -18.0000 82.9000 89 965 2 110 135 126 95 1008 260 14 11 234
2022352S12093 2023 88 SI MM DARIAN 2022-12-27 09:00:00 NR -18.3645 82.4525 PROVISIONAL 2588 2530 P_____________ SI052022 -18.3645 82.4525 84 967 2 112 150 135 95 1007 270 14 12 234
2022352S12093 2023 88 SI MM DARIAN 2022-12-27 12:00:00 NR -18.7000 81.9000 PROVISIONAL 2530 2454 O_____________ tcvitals SI052022 -18.7000 81.9000 80 970 1 115 165 145 95 1007 280 14 14 249
2022352S12093 2023 88 SI MM DARIAN 2022-12-27 15:00:00 NR -18.8656 81.1071 PROVISIONAL 2443 2358 P_____________ SI052022 -18.8656 81.1071 75 976 1 112 160 140 90 1007 280 14 15 259
2022352S12093 2023 88 SI MM DARIAN 2022-12-27 18:00:00 NR -19.0000 80.3000 PROVISIONAL 2358 2303 O_____________ tcvitals SI052022 -19.0000 80.3000 70 983 1 110 155 135 85 1008 280 14 13 255
2022352S12093 2023 88 SI MM DARIAN 2022-12-27 21:00:00 NR -19.2116 79.7494 PROVISIONAL 2293 2237 P_____________ SI052022 -19.2116 79.7494 65 986 1 127 167 140 90 1008 260 17 12 244
2022352S12093 2023 88 SI MM DARIAN 2022-12-28 00:00:00 NR -19.5000 79.2000 PROVISIONAL 2237 2160 O_____________ tcvitals SI052022 -19.5000 79.2000 60 989 0 145 180 145 95 1008 240 20 14 242
2022352S12093 2023 88 SI MM DARIAN 2022-12-28 03:00:00 NR -19.8929 78.4155 PROVISIONAL 2149 2063 P_____________ SI052022 -19.8929 78.4155 57 990 0 127 167 142 92 1008 240 25 17 242
2022352S12093 2023 88 SI MM DARIAN 2022-12-28 06:00:00 NR -20.3000 77.6000 PROVISIONAL 2063 1999 O_____________ tcvitals SI052022 -20.3000 77.6000 54 992 0 110 155 140 90 1008 240 30 16 243
2022352S12093 2023 88 SI MM DARIAN 2022-12-28 09:00:00 NR -20.6071 76.9194 PROVISIONAL 1988 1925 P_____________ SI052022 -20.6071 76.9194 49 993 0 100 155 140 90 1008 242 27 14 244
2022352S12093 2023 88 SI MM DARIAN 2022-12-28 12:00:00 NR -20.9000 76.3000 PROVISIONAL 1925 1862 O_____________ tcvitals SI052022 -20.9000 76.3000 45 995 0 90 155 140 90 1009 245 25 13 241
2022352S12093 2023 88 SI MM DARIAN 2022-12-28 15:00:00 NR -21.2345 75.7070 PROVISIONAL 1862 1801 P_____________ SI052022 -21.2345 75.7070 49 995 0 95 165 133 87 1010 245 27 13 238
2022352S12093 2023 88 SI MM DARIAN 2022-12-28 18:00:00 NR -21.6000 75.1000 PROVISIONAL 1801 1730 O_____________ tcvitals SI052022 -21.6000 75.1000 54 995 0 100 175 126 85 1011 245 30 14 238
2022352S12093 2023 88 SI MM DARIAN 2022-12-28 21:00:00 NR -21.9775 74.4072 PROVISIONAL 1730 1662 P_____________ SI052022 -21.9775 74.4072 54 994 0 95 175 140 82 1011 245 27 15 238
2022352S12093 2023 88 SI MM DARIAN 2022-12-29 00:00:00 NR -22.4000 73.7000 PROVISIONAL 1662 1605 O_____________ tcvitals SI052022 -22.4000 73.7000 54 994 0 90 175 155 80 1011 245 25 16 235
2022352S12093 2023 88 SI MM DARIAN 2022-12-29 03:00:00 NR -22.8774 73.0198 PROVISIONAL 1596 1544 P_____________ SI052022 -22.8774 73.0198 54 995 0 95 170 140 72 1012 245 25 16 230
2022352S12093 2023 88 SI MM DARIAN 2022-12-29 06:00:00 NR -23.4000 72.4000 PROVISIONAL 1544 1506 O_____________ tcvitals SI052022 -23.4000 72.4000 54 996 0 100 165 126 65 1013 245 25 15 225
2022352S12093 2023 88 SI MM DARIAN 2022-12-29 09:00:00 NR -23.9573 71.8549 PROVISIONAL 1508 1470 P_____________ SI052022 -23.9573 71.8549 52 996 0 100 157 126 62 1012 242 25 14 220
2022352S12093 2023 88 SI MM DARIAN 2022-12-29 12:00:00 NR -24.5000 71.4000 PROVISIONAL 1473 1451 O_____________ tcvitals SI052022 -24.5000 71.4000 51 997 0 100 150 126 60 1012 240 25 13 217
2022352S12093 2023 88 SI MM DARIAN 2022-12-29 15:00:00 NR -24.9798 71.0121 PROVISIONAL 1451 1434 P_____________ SI052022 -24.9798 71.0121 51 996 0 122 155 128 60 1012 240 27 11 215
2022352S12093 2023 88 SI MM DARIAN 2022-12-29 18:00:00 NR -25.4000 70.7000 PROVISIONAL 1437 1426 O_____________ tcvitals SI052022 -25.4000 70.7000 51 995 0 145 160 130 60 1012 240 30 9 215
2022352S12093 2023 88 SI MM DARIAN 2022-12-29 21:00:00 NR -25.7198 70.4417 PROVISIONAL 1421 1415 P_____________ SI052022 -25.7198 70.4417 48 998 0 132 150 125 67 1013 237 35 8 213
2022352S12093 2023 88 SI MM DARIAN 2022-12-30 00:00:00 NR -26.1000 70.2000 PROVISIONAL 1420 1415 O_____________ tcvitals SI052022 -26.1000 70.2000 45 1001 0 120 140 120 75 1015 235 40 11 206
2022352S12093 2023 88 SI MM DARIAN 2022-12-30 03:00:00 NR -26.7275 69.9004 PROVISIONAL 1421 1417 P_____________ SI052022 -26.7275 69.9004 45 1000 0 123 147 117 70 1015 235 40 14 202
2022352S12093 2023 88 SI MM DARIAN 2022-12-30 06:00:00 NR -27.4000 69.6000 PROVISIONAL 1432 1429 O_____________ tcvitals SI052022 -27.4000 69.6000 45 1000 0 126 155 115 65 1015 235 40 13 202
2022352S12093 2023 88 SI MM DARIAN 2022-12-30 09:00:00 NR -27.9373 69.3569 PROVISIONAL 1444 1442 P_____________ SI052022 -27.9373 69.3569 45 999 0 130 155 117 77 1014 235 40 11 204
2022352S12093 2023 88 SI MM DARIAN 2022-12-30 12:00:00 NR -28.4000 69.1000 PROVISIONAL 1450 1446 O_____________ tcvitals SI052022 -28.4000 69.1000 45 998 0 135 155 120 90 1014 235 40 10 212
2022352S12093 2023 88 SI MM DARIAN 2022-12-30 15:00:00 NR -28.7944 68.7428 PROVISIONAL 1445 1443 P_____________ SI052022 -28.7852 68.7276 45 998 0 117 150 120 82 1014 235 40 10 217
2022352S12093 2023 88 SI MM DARIAN 2022-12-30 18:00:00 NR -29.2000 68.4000 PROVISIONAL 1450 1450 O_____________ tcvitals SI052022 -29.2000 68.4000 45 999 0 100 145 120 75 1014 235 40 11 204
2022352S12093 2023 88 SI MM DARIAN 2022-12-30 21:00:00 NR -29.7741 68.2484 PROVISIONAL 1479 1479 P_____________ SI052022 -29.7741 68.2484 42 1000 0 97 142 117 80 1014 235 42 12 188
2022352S12093 2023 88 SI MM DARIAN 2022-12-31 00:00:00 NR -30.4000 68.2000 PROVISIONAL 1525 1525 O_____________ tcvitals SI052022 -30.4000 68.2000 39 1001 0 95 140 115 85 1014 235 45 12 183
2022352S12093 2023 88 SI MM DARIAN 2022-12-31 03:00:00 NR -30.9876 68.1863 PROVISIONAL 1572 1572 P_____________ SI052022 -30.9876 68.1863 -5 11 181
2022352S12093 2023 88 SI MM DARIAN 2022-12-31 06:00:00 NR -31.5439 68.1844 PROVISIONAL 1613 O_____________ tcvitals SI052022 -31.5439 68.1844 -5 11 182

IBTrACS Databaseについて

本データベースは、米国NOAAが公開する1842年以降の世界の熱帯低気圧のベストトラックデータアーカイブInternational Best Track Archive for Climate Stewardship (IBTrACS)を、ウェブで閲覧しやすい形式に変換したものです。

最終更新日:2023-02-08